createdAt,value
2023-01-13T00:01:18.627Z,10.71
2023-01-13T00:03:47.080Z,10.77
2023-01-13T00:06:17.950Z,10.75
2023-01-13T00:08:46.106Z,10.82
2023-01-13T00:11:13.939Z,10.81
2023-01-13T00:13:42.050Z,10.74
2023-01-13T00:16:13.339Z,10.84
2023-01-13T00:18:41.493Z,10.78
2023-01-13T00:21:12.885Z,10.82
2023-01-13T00:23:42.881Z,10.79
2023-01-13T00:26:12.087Z,10.76
2023-01-13T00:28:40.308Z,10.51
2023-01-13T00:31:09.522Z,10.59
2023-01-13T00:33:37.842Z,10.46
2023-01-13T00:36:07.207Z,10.56
2023-01-13T00:38:36.333Z,10.55
2023-01-13T00:41:07.480Z,10.49
2023-01-13T00:43:35.970Z,10.36
2023-01-13T00:46:04.581Z,10.46
2023-01-13T00:48:32.891Z,10.36
2023-01-13T00:51:02.691Z,10.31
2023-01-13T00:53:34.823Z,10.35
2023-01-13T00:56:03.314Z,10.40
2023-01-13T00:58:34.503Z,10.49
2023-01-13T01:01:03.074Z,10.58
2023-01-13T01:03:31.819Z,10.67
2023-01-13T01:06:05.706Z,10.58
2023-01-13T01:08:34.509Z,10.67
2023-01-13T01:11:03.605Z,10.74
2023-01-13T01:13:33.595Z,10.74
2023-01-13T01:16:06.663Z,10.74
2023-01-13T01:18:35.282Z,10.63
2023-01-13T01:21:03.774Z,10.63
2023-01-13T01:23:32.643Z,10.51
2023-01-13T01:26:01.059Z,10.52
2023-01-13T01:28:29.336Z,10.48
2023-01-13T01:30:59.764Z,10.49
2023-01-13T01:33:28.038Z,10.42
2023-01-13T01:35:56.020Z,10.44
2023-01-13T01:38:24.137Z,10.45
2023-01-13T01:40:51.993Z,10.51
2023-01-13T01:43:39.369Z,10.49
2023-01-13T01:46:08.664Z,10.38
2023-01-13T01:48:39.976Z,10.47
2023-01-13T01:51:10.961Z,10.45
2023-01-13T01:53:41.654Z,10.44
2023-01-13T01:56:10.113Z,10.41
2023-01-13T01:58:45.659Z,10.31
2023-01-13T02:01:15.350Z,10.23
2023-01-13T02:03:45.735Z,10.17
2023-01-13T02:06:14.751Z,10.11
2023-01-13T02:08:42.851Z,10.11
2023-01-13T02:11:42.999Z,10.13
2023-01-13T02:14:12.131Z,10.07
2023-01-13T02:16:53.142Z,9.95
2023-01-13T02:19:40.015Z,9.93
2023-01-13T02:22:26.975Z,10.01
2023-01-13T02:25:07.119Z,10.10
2023-01-13T02:27:58.982Z,10.04
2023-01-13T02:30:59.043Z,10.13
2023-01-13T02:33:45.272Z,10.07
2023-01-13T02:36:20.557Z,9.90
2023-01-13T02:38:52.280Z,9.88
2023-01-13T02:41:44.448Z,9.88
2023-01-13T02:44:13.393Z,9.86
2023-01-13T02:46:50.038Z,9.90
2023-01-13T02:49:23.174Z,9.88
2023-01-13T02:51:52.497Z,9.92
2023-01-13T02:54:23.556Z,9.84
2023-01-13T02:56:51.964Z,9.86
2023-01-13T02:59:20.627Z,9.90
2023-01-13T03:01:50.970Z,9.92
2023-01-13T03:04:46.769Z,9.95
2023-01-13T03:07:42.124Z,9.98
2023-01-13T03:10:12.794Z,9.97
2023-01-13T03:12:48.555Z,10.02
2023-01-13T03:15:20.415Z,9.98
2023-01-13T03:17:56.561Z,10.03
2023-01-13T03:20:27.548Z,9.97
2023-01-13T03:23:00.908Z,9.93
2023-01-13T03:25:30.585Z,9.90
2023-01-13T03:28:00.275Z,9.88
2023-01-13T03:30:32.459Z,9.87
2023-01-13T03:33:06.024Z,9.81
2023-01-13T03:35:37.194Z,9.76
2023-01-13T03:38:08.396Z,9.73
2023-01-13T03:40:39.077Z,9.77
2023-01-13T03:43:27.373Z,9.79
2023-01-13T03:45:59.087Z,9.74
2023-01-13T03:48:29.788Z,9.81
2023-01-13T03:51:03.373Z,9.80
2023-01-13T03:53:33.817Z,9.90
2023-01-13T03:56:10.533Z,9.87
2023-01-13T03:58:41.318Z,9.84
2023-01-13T04:01:15.309Z,9.87
2023-01-13T04:03:49.774Z,10.01
2023-01-13T04:06:24.962Z,10.07
2023-01-13T04:08:57.074Z,10.13
2023-01-13T04:11:30.472Z,10.15
2023-01-13T04:13:59.549Z,10.13
2023-01-13T04:16:27.672Z,10.12
2023-01-13T04:18:57.152Z,10.16
2023-01-13T04:21:25.111Z,10.20
2023-01-13T04:23:53.903Z,10.24
2023-01-13T04:26:23.381Z,10.23
2023-01-13T04:28:51.939Z,10.37
2023-01-13T04:31:19.959Z,10.32
2023-01-13T04:33:48.131Z,10.29
2023-01-13T04:36:18.143Z,10.35
2023-01-13T04:38:46.315Z,10.37
2023-01-13T04:41:14.211Z,10.41
2023-01-13T04:43:42.407Z,10.37
2023-01-13T04:46:10.350Z,10.41
2023-01-13T04:48:39.136Z,10.38
2023-01-13T04:51:07.205Z,10.43
2023-01-13T04:53:37.064Z,10.48
2023-01-13T04:56:05.326Z,10.59
2023-01-13T04:58:33.447Z,10.62
2023-01-13T05:01:01.354Z,10.55
2023-01-13T05:03:29.647Z,10.54
2023-01-13T05:05:57.507Z,10.61
2023-01-13T05:08:25.748Z,10.56
2023-01-13T05:10:54.977Z,10.56
2023-01-13T05:13:39.790Z,10.69
2023-01-13T05:16:28.156Z,10.59
2023-01-13T05:18:56.309Z,10.62
2023-01-13T05:21:41.873Z,10.68
2023-01-13T05:24:36.822Z,10.66
2023-01-13T05:27:06.237Z,10.60
2023-01-13T05:29:34.385Z,10.54
2023-01-13T05:32:02.577Z,10.57
2023-01-13T05:34:30.841Z,10.57
2023-01-13T05:36:58.747Z,10.58
2023-01-13T05:39:27.861Z,10.55
2023-01-13T05:42:13.454Z,10.53
2023-01-13T05:44:42.940Z,10.64
2023-01-13T05:47:11.492Z,10.68
2023-01-13T05:49:42.178Z,10.67
2023-01-13T05:52:10.205Z,10.67
2023-01-13T05:54:38.367Z,10.71
2023-01-13T05:57:06.254Z,10.67
2023-01-13T05:59:34.438Z,10.69
2023-01-13T06:02:03.682Z,10.59
2023-01-13T06:04:31.854Z,10.65
2023-01-13T06:06:59.821Z,10.71
2023-01-13T06:09:27.966Z,10.64
2023-01-13T06:11:55.879Z,10.69
2023-01-13T06:14:24.091Z,10.69
2023-01-13T06:16:52.028Z,10.78
2023-01-13T06:19:21.583Z,10.75
2023-01-13T06:21:49.526Z,10.75
2023-01-13T06:24:17.697Z,10.71
2023-01-13T06:26:45.757Z,10.70
2023-01-13T06:29:16.714Z,10.77
2023-01-13T06:31:44.852Z,10.62
2023-01-13T06:34:14.850Z,10.63
2023-01-13T06:36:46.604Z,10.48
2023-01-13T06:39:17.752Z,10.41
2023-01-13T06:42:04.030Z,10.25
2023-01-13T06:44:32.164Z,10.19
2023-01-13T06:47:00.102Z,10.13
2023-01-13T06:49:28.271Z,10.10
2023-01-13T06:51:57.490Z,10.04
2023-01-13T06:54:27.673Z,10.04
2023-01-13T06:56:55.795Z,9.90
2023-01-13T06:59:25.111Z,9.87
2023-01-13T07:01:53.152Z,9.81
2023-01-13T07:04:21.433Z,9.87
2023-01-13T07:06:49.475Z,9.81
2023-01-13T07:09:19.023Z,9.91
2023-01-13T07:11:46.960Z,9.85
2023-01-13T07:14:32.921Z,9.84
2023-01-13T07:17:00.801Z,9.91
2023-01-13T07:19:28.945Z,9.72
2023-01-13T07:21:56.905Z,9.54
2023-01-13T07:24:26.566Z,9.66
2023-01-13T07:26:54.481Z,9.72
2023-01-13T07:29:22.660Z,9.71
2023-01-13T07:31:50.938Z,9.46
2023-01-13T07:34:19.723Z,9.48
2023-01-13T07:36:47.733Z,9.50
2023-01-13T07:39:15.953Z,9.31
2023-01-13T07:42:02.713Z,9.28
2023-01-13T07:44:30.921Z,9.44
2023-01-13T07:46:58.886Z,9.59
2023-01-13T07:49:27.119Z,9.66
2023-01-13T07:51:55.214Z,9.69
2023-01-13T07:54:35.076Z,9.73
2023-01-13T07:57:08.828Z,9.77
2023-01-13T07:59:37.041Z,9.69
2023-01-13T08:02:05.304Z,9.67
2023-01-13T08:04:34.990Z,9.64
2023-01-13T08:07:02.898Z,9.50
2023-01-13T08:09:31.224Z,9.57
2023-01-13T08:12:13.172Z,9.58
2023-01-13T08:14:43.021Z,9.39
2023-01-13T08:17:11.752Z,9.43
2023-01-13T08:19:39.904Z,9.51
2023-01-13T08:22:07.809Z,9.56
2023-01-13T08:24:35.948Z,9.63
2023-01-13T08:27:03.906Z,9.62
2023-01-13T08:29:32.034Z,9.72
2023-01-13T08:32:01.455Z,9.78
2023-01-13T08:34:29.783Z,9.71
2023-01-13T08:36:57.752Z,9.66
2023-01-13T08:39:26.195Z,9.70
2023-01-13T08:41:58.262Z,9.71
2023-01-13T08:44:27.602Z,9.62
2023-01-13T08:46:56.045Z,9.76
2023-01-13T08:49:26.511Z,9.63
2023-01-13T08:51:54.857Z,9.60
2023-01-13T08:54:23.052Z,9.56
2023-01-13T08:56:51.115Z,9.46
2023-01-13T08:59:20.957Z,9.31
2023-01-13T09:01:49.169Z,9.41
2023-01-13T09:04:19.783Z,9.34
2023-01-13T09:06:49.591Z,9.48
2023-01-13T09:09:17.807Z,9.58
2023-01-13T09:12:08.660Z,9.60
2023-01-13T09:14:38.744Z,9.64
2023-01-13T09:17:07.296Z,9.64
2023-01-13T09:19:35.836Z,9.67
2023-01-13T09:22:05.154Z,9.53
2023-01-13T09:24:33.545Z,9.55
2023-01-13T09:27:01.578Z,9.61
2023-01-13T09:29:29.824Z,9.44
2023-01-13T09:31:58.214Z,9.35
2023-01-13T09:34:44.577Z,9.39
2023-01-13T09:37:14.046Z,9.35
2023-01-13T09:39:42.231Z,9.53
2023-01-13T09:42:33.868Z,9.55
2023-01-13T09:45:05.767Z,9.80
2023-01-13T09:47:38.424Z,9.87
2023-01-13T09:50:16.648Z,9.87
2023-01-13T09:52:46.098Z,9.86
2023-01-13T09:55:17.100Z,10.09
2023-01-13T09:57:45.110Z,9.96
2023-01-13T10:00:15.249Z,9.98
2023-01-13T10:02:58.811Z,10.05
2023-01-13T10:05:33.422Z,9.94
2023-01-13T10:08:08.867Z,9.93
2023-01-13T10:10:39.863Z,9.93
2023-01-13T10:13:20.055Z,10.16
2023-01-13T10:16:06.276Z,9.97
2023-01-13T10:18:41.012Z,9.76
2023-01-13T10:21:21.120Z,10.00
2023-01-13T10:23:59.381Z,9.97
2023-01-13T10:26:38.547Z,9.87
2023-01-13T10:29:19.750Z,9.80
2023-01-13T10:31:47.969Z,9.81
2023-01-13T10:34:17.012Z,10.02
2023-01-13T10:36:57.725Z,9.94
2023-01-13T10:39:28.791Z,9.98
2023-01-13T10:42:04.375Z,9.94
2023-01-13T10:44:32.294Z,10.08
2023-01-13T10:47:00.621Z,10.12
2023-01-13T10:49:32.719Z,10.15
2023-01-13T10:52:02.063Z,10.13
2023-01-13T10:54:32.823Z,10.15
2023-01-13T10:57:15.363Z,10.13
2023-01-13T10:59:43.372Z,10.16
2023-01-13T11:02:25.636Z,9.89
2023-01-13T11:05:03.033Z,9.83
2023-01-13T11:07:34.311Z,9.92
2023-01-13T11:10:19.096Z,10.03
2023-01-13T11:12:52.684Z,10.11
2023-01-13T11:15:22.655Z,10.18
2023-01-13T11:18:00.523Z,10.36
2023-01-13T11:20:33.652Z,10.51
2023-01-13T11:23:04.366Z,10.63
2023-01-13T11:25:42.293Z,10.68
2023-01-13T11:28:34.795Z,10.75
2023-01-13T11:31:09.166Z,10.87
2023-01-13T11:33:41.629Z,11.03
2023-01-13T11:36:13.560Z,11.26
2023-01-13T11:38:47.717Z,11.37
2023-01-13T11:41:24.717Z,11.84
2023-01-13T11:43:56.373Z,12.11
2023-01-13T11:46:27.564Z,12.88
2023-01-13T11:48:57.297Z,13.58
2023-01-13T11:51:36.863Z,13.47
2023-01-13T11:54:32.918Z,14.10
2023-01-13T11:57:17.171Z,14.17
2023-01-13T11:59:54.635Z,13.65
2023-01-13T12:02:33.271Z,13.41
2023-01-13T12:05:11.879Z,12.84
2023-01-13T12:07:45.446Z,12.82
2023-01-13T12:10:18.593Z,12.46
2023-01-13T12:12:54.570Z,12.55
2023-01-13T12:15:37.249Z,11.97
2023-01-13T12:18:22.843Z,11.83
2023-01-13T12:21:02.212Z,11.64
2023-01-13T12:23:34.844Z,11.45
2023-01-13T12:26:08.689Z,10.91
2023-01-13T12:28:43.950Z,10.88
2023-01-13T12:31:12.579Z,10.93
2023-01-13T12:33:48.826Z,10.69
2023-01-13T12:36:23.386Z,10.26
2023-01-13T12:38:56.832Z,10.27
2023-01-13T12:41:34.712Z,10.29
2023-01-13T12:44:20.185Z,10.52
2023-01-13T12:46:56.999Z,10.98
2023-01-13T12:49:28.573Z,11.21
2023-01-13T12:52:18.411Z,13.05
2023-01-13T12:55:14.927Z,13.40
2023-01-13T12:58:11.719Z,13.02
2023-01-13T13:00:55.516Z,12.08
2023-01-13T13:03:34.890Z,12.39
2023-01-13T13:06:11.506Z,13.09
2023-01-13T13:08:47.433Z,13.69
2023-01-13T13:11:39.763Z,14.11
2023-01-13T13:14:12.314Z,15.31
2023-01-13T13:16:49.548Z,14.71
2023-01-13T13:19:42.313Z,14.77
2023-01-13T13:22:38.486Z,16.01
2023-01-13T13:25:25.469Z,15.73
2023-01-13T13:28:17.808Z,15.82
2023-01-13T13:30:52.785Z,13.84
2023-01-13T13:33:40.129Z,14.07
2023-01-13T13:36:19.135Z,13.31
2023-01-13T13:39:27.362Z,13.04
2023-01-13T13:42:20.395Z,12.19
2023-01-13T13:45:06.840Z,11.86
2023-01-13T13:47:39.312Z,11.74
2023-01-13T13:50:13.095Z,11.46
2023-01-13T13:52:43.197Z,11.05
2023-01-13T13:55:18.591Z,11.10
2023-01-13T13:57:48.790Z,10.88
2023-01-13T14:00:24.087Z,10.89
2023-01-13T14:02:54.181Z,10.66
2023-01-13T14:05:25.398Z,10.74
2023-01-13T14:07:59.938Z,10.49
2023-01-13T14:10:32.578Z,10.42
2023-01-13T14:13:03.456Z,10.43
2023-01-13T14:15:34.582Z,10.11
2023-01-13T14:18:05.443Z,10.02
2023-01-13T14:20:36.815Z,9.80
2023-01-13T14:23:06.047Z,9.35
2023-01-13T14:25:39.413Z,9.05
2023-01-13T14:28:20.021Z,9.49
2023-01-13T14:30:49.821Z,10.61
2023-01-13T14:33:19.827Z,11.55
2023-01-13T14:36:09.137Z,12.08
2023-01-13T14:38:37.395Z,12.77
2023-01-13T14:41:13.411Z,12.88
2023-01-13T14:43:44.221Z,12.81
2023-01-13T14:46:12.508Z,13.24
2023-01-13T14:48:44.111Z,12.75
2023-01-13T14:51:21.456Z,12.56
2023-01-13T14:53:49.825Z,13.23
2023-01-13T14:56:41.976Z,12.86
2023-01-13T14:59:32.743Z,12.87
2023-01-13T15:02:00.973Z,12.84
2023-01-13T15:04:34.161Z,12.65
2023-01-13T15:07:04.116Z,12.80
2023-01-13T15:09:40.124Z,12.76
2023-01-13T15:12:17.623Z,12.92
2023-01-13T15:14:50.516Z,12.12
2023-01-13T15:17:18.899Z,11.36
2023-01-13T15:19:47.140Z,11.44
2023-01-13T15:22:16.483Z,10.92
2023-01-13T15:24:44.816Z,10.76
2023-01-13T15:27:18.800Z,10.92
2023-01-13T15:29:47.050Z,11.15
2023-01-13T15:32:19.682Z,11.00
2023-01-13T15:34:48.839Z,11.16
2023-01-13T15:37:19.354Z,10.57
2023-01-13T15:39:47.858Z,10.36
2023-01-13T15:42:33.633Z,10.11
2023-01-13T15:45:19.609Z,10.23
2023-01-13T15:47:48.239Z,9.78
2023-01-13T15:50:20.713Z,10.04
2023-01-13T15:52:50.116Z,10.04
2023-01-13T15:55:18.370Z,9.51
2023-01-13T15:57:47.354Z,9.55
2023-01-13T16:00:17.766Z,9.46
2023-01-13T16:02:45.761Z,9.63
2023-01-13T16:05:14.109Z,9.48
2023-01-13T16:07:42.436Z,9.56
2023-01-13T16:10:17.547Z,9.74
2023-01-13T16:12:45.580Z,9.87
2023-01-13T16:15:15.424Z,9.92
2023-01-13T16:17:44.458Z,9.83
2023-01-13T16:20:16.759Z,9.85
2023-01-13T16:22:45.229Z,9.83
2023-01-13T16:25:18.581Z,9.77
2023-01-13T16:27:47.127Z,9.64
2023-01-13T16:30:28.743Z,9.64
2023-01-13T16:32:57.123Z,9.86
2023-01-13T16:35:25.790Z,9.94
2023-01-13T16:37:54.985Z,10.11
2023-01-13T16:40:26.762Z,10.05
2023-01-13T16:42:54.918Z,10.01
2023-01-13T16:45:23.125Z,9.97
2023-01-13T16:47:51.274Z,9.80
2023-01-13T16:50:31.830Z,9.71
2023-01-13T16:52:59.839Z,9.90
2023-01-13T16:55:29.436Z,9.99
2023-01-13T16:57:57.618Z,9.91
2023-01-13T17:00:26.316Z,9.91
2023-01-13T17:02:54.600Z,9.79
2023-01-13T17:05:22.885Z,9.83
2023-01-13T17:07:50.934Z,9.79
2023-01-13T17:10:21.393Z,9.66
2023-01-13T17:12:50.795Z,9.73
2023-01-13T17:15:20.542Z,9.80
2023-01-13T17:17:51.758Z,9.78
2023-01-13T17:20:20.601Z,9.66
2023-01-13T17:22:57.666Z,9.59
2023-01-13T17:25:26.365Z,9.67
2023-01-13T17:27:55.682Z,9.80
2023-01-13T17:30:23.931Z,9.67
2023-01-13T17:32:51.969Z,9.75
2023-01-13T17:35:24.489Z,9.76
2023-01-13T17:37:52.552Z,9.60
2023-01-13T17:40:20.938Z,9.69
2023-01-13T17:42:48.946Z,9.72
2023-01-13T17:45:18.942Z,9.63
2023-01-13T17:47:47.560Z,9.72
2023-01-13T17:50:17.124Z,9.75
2023-01-13T17:52:45.135Z,9.62
2023-01-13T17:55:13.455Z,9.76
2023-01-13T17:57:41.493Z,9.75
2023-01-13T18:00:12.062Z,9.69
2023-01-13T18:02:44.267Z,9.52
2023-01-13T18:05:12.686Z,9.61
2023-01-13T18:07:40.742Z,9.56
2023-01-13T18:10:10.663Z,9.42
2023-01-13T18:12:38.957Z,9.57
2023-01-13T18:15:08.582Z,9.58
2023-01-13T18:17:36.612Z,9.59
2023-01-13T18:20:24.340Z,9.45
2023-01-13T18:23:10.042Z,9.48
2023-01-13T18:25:57.784Z,9.44
2023-01-13T18:28:25.793Z,9.59
2023-01-13T18:30:54.052Z,9.66
2023-01-13T18:33:22.043Z,9.52
2023-01-13T18:35:51.843Z,9.50
2023-01-13T18:38:20.023Z,9.51
2023-01-13T18:40:48.279Z,9.35
2023-01-13T18:43:15.332Z,9.46
2023-01-13T18:45:44.780Z,9.46
2023-01-13T18:48:12.830Z,9.39
2023-01-13T18:50:41.061Z,9.36
2023-01-13T18:53:10.425Z,9.26
2023-01-13T18:55:38.767Z,9.26
2023-01-13T18:58:06.845Z,9.28
2023-01-13T19:00:37.341Z,9.23
2023-01-13T19:05:36.044Z,9.28
2023-01-13T19:08:04.725Z,9.12
2023-01-13T19:10:34.518Z,9.23
2023-01-13T19:13:02.661Z,9.16
2023-01-13T19:15:31.100Z,9.25
2023-01-13T19:17:59.187Z,9.30
2023-01-13T19:20:27.454Z,9.03
2023-01-13T19:22:55.509Z,8.97
2023-01-13T19:25:23.787Z,8.94
2023-01-13T19:27:53.216Z,9.02
2023-01-13T19:30:21.731Z,9.13
2023-01-13T19:32:49.823Z,9.10
2023-01-13T19:35:19.864Z,9.10
2023-01-13T19:37:47.958Z,9.24
2023-01-13T19:40:16.759Z,9.11
2023-01-13T19:43:02.556Z,9.08
2023-01-13T19:45:35.090Z,9.14
2023-01-13T19:48:05.238Z,9.10
2023-01-13T19:50:37.229Z,8.94
2023-01-13T19:53:05.410Z,8.88
2023-01-13T19:55:33.641Z,8.77
2023-01-13T19:58:02.745Z,8.65
2023-01-13T20:00:32.452Z,8.44
2023-01-13T20:03:03.330Z,8.42
2023-01-13T20:05:31.788Z,8.49
2023-01-13T20:07:59.840Z,8.53
2023-01-13T20:10:30.328Z,8.69
2023-01-13T20:12:58.346Z,8.53
2023-01-13T20:15:26.598Z,8.44
2023-01-13T20:17:57.237Z,8.37
2023-01-13T20:20:27.250Z,8.52
2023-01-13T20:22:55.242Z,8.45
2023-01-13T20:25:23.519Z,8.42
2023-01-13T20:27:51.773Z,8.44
2023-01-13T20:30:20.036Z,8.41
2023-01-13T20:32:48.034Z,8.42
2023-01-13T20:35:18.285Z,8.21
2023-01-13T20:37:46.296Z,8.38
2023-01-13T20:40:17.768Z,8.31
2023-01-13T20:42:45.171Z,8.40
2023-01-13T20:45:16.809Z,8.29
2023-01-13T20:47:45.819Z,8.16
2023-01-13T20:50:14.936Z,8.19
2023-01-13T20:52:44.686Z,8.14
2023-01-13T20:55:13.312Z,8.15
2023-01-13T20:57:41.693Z,8.10
2023-01-13T21:00:11.389Z,8.23
2023-01-13T21:02:41.442Z,8.18
2023-01-13T21:05:10.062Z,8.22
2023-01-13T21:07:38.106Z,8.27
2023-01-13T21:10:11.201Z,8.20
2023-01-13T21:12:56.673Z,8.36
2023-01-13T21:15:25.761Z,8.42
2023-01-13T21:18:11.241Z,8.29
2023-01-13T21:20:39.967Z,8.37
2023-01-13T21:23:10.495Z,8.31
2023-01-13T21:25:40.424Z,8.27
2023-01-13T21:28:13.375Z,8.17
2023-01-13T21:30:41.668Z,8.11
2023-01-13T21:33:13.909Z,8.21
2023-01-13T21:35:42.589Z,8.27
2023-01-13T21:38:12.179Z,8.17
2023-01-13T21:40:41.887Z,8.19
2023-01-13T21:43:30.411Z,8.16
2023-01-13T21:46:16.274Z,8.26
2023-01-13T21:48:44.250Z,8.12
2023-01-13T21:51:12.673Z,8.24
2023-01-13T21:53:40.636Z,8.32
2023-01-13T21:56:10.207Z,8.31
2023-01-13T21:58:39.732Z,8.38
2023-01-13T22:01:09.679Z,8.40
2023-01-13T22:03:54.565Z,8.26
2023-01-13T22:06:22.928Z,8.28
2023-01-13T22:08:50.938Z,8.37
2023-01-13T22:11:20.625Z,8.37
2023-01-13T22:14:07.078Z,8.29
2023-01-13T22:16:38.979Z,8.15
2023-01-13T22:19:08.421Z,8.16
2023-01-13T22:21:36.923Z,8.24
2023-01-13T22:24:05.272Z,8.28
2023-01-13T22:26:35.186Z,8.23
2023-01-13T22:29:03.199Z,8.36
2023-01-13T22:31:31.779Z,8.48
2023-01-13T22:33:59.777Z,8.61
2023-01-13T22:36:28.109Z,8.67
2023-01-13T22:38:56.798Z,8.59
2023-01-13T22:41:25.093Z,8.60
2023-01-13T22:43:54.476Z,8.63
2023-01-13T22:46:23.537Z,8.71
2023-01-13T22:48:53.773Z,8.79
2023-01-13T22:51:23.627Z,8.86
2023-01-13T22:53:52.069Z,8.83
2023-01-13T22:56:22.065Z,8.72
2023-01-13T22:58:55.325Z,8.60
2023-01-13T23:01:24.760Z,8.59
2023-01-13T23:03:53.088Z,8.57
2023-01-13T23:06:22.243Z,8.46
2023-01-13T23:08:50.549Z,8.42
2023-01-13T23:11:19.881Z,8.49
2023-01-13T23:13:48.040Z,8.40
2023-01-13T23:16:20.845Z,8.33
2023-01-13T23:18:49.056Z,8.13
2023-01-13T23:21:19.085Z,7.99
2023-01-13T23:23:47.287Z,7.91
2023-01-13T23:26:16.069Z,7.76
2023-01-13T23:28:44.337Z,7.65
2023-01-13T23:31:18.616Z,7.55
2023-01-13T23:33:46.918Z,7.48
2023-01-13T23:36:16.933Z,7.59
2023-01-13T23:38:45.188Z,7.69
2023-01-13T23:41:15.831Z,7.86
2023-01-13T23:43:43.917Z,7.92
2023-01-13T23:46:13.895Z,7.92
2023-01-13T23:48:43.442Z,8.07
2023-01-13T23:51:13.406Z,7.92
2023-01-13T23:53:44.572Z,8.05
2023-01-13T23:56:14.631Z,8.00
2023-01-13T23:58:43.317Z,8.04
